Welcome to our Virtual Airline
Sign-in:

Flight MFC691

  • Submitted By: Danny Rice
  • Departure Airport: Hydaburg SPB (HYG)
  • Arrival Airport: Point Baker SPB (KPB)
  • Aircraft: BELL 407 (N020MM)
  • Flight Time: 00.47.07
  • Date Submitted: 2018/05/12
  • Route: FOLLOW THE TOUR FP
  • Status: Accepted
Flight Details
Gross Revenue:
(5 load / $ 52.00 per unit
$ 260.00
Fuel Cost:
(61.235 fuel used @ 5.1 / unit)
$ 312.30

Additional Log Information:

View Log

FS[07:03] ----- Flight Opened -----
FS[07:03] Cigar Box - 1.1.4.0
FS[07:03] FS: Prepar3D V4
FS[07:03] FSUIPC: v5.13
FS[07:03] Flight Number: MFC691
FS[07:03] FS Aircraft: Bell 407 N020MM
FS[07:03] FS Model: B407
FS[07:03] FS Type: Bell
FS[07:03] Departure: HYG
FS[07:03] Arrival: KPB
FS[07:03] Flight Level: 2500
FS[07:03] Flight Type: H
FS[07:03] Passengers: 5
FS[07:03] FOB: 858 lbs
FS[07:03] Gate: n/a
FS[07:03] NOTE: Parking Brake Ignored
FS[07:03] Crash Detection: Disabled
FS[07:03] Engines: 1 Helo
FS[07:03] NOTE: Boarding has started
FS[07:03] Engine 1: Started
FS[07:03] Light Data: Beacon ON
FS[07:03] Light Data: Landing lights ON
FS[07:03] Main Door Closed
FS[07:03] COM1: 128.25
FS[07:03] COM2: 127.80
FS[07:03] Transponder: 1200
FS[07:03] NAV1: 113.70
FS[07:03] NAV2: 110.60
FS[07:03] ADF1: 284.0
FS[07:03] ADF2: 240.0
FS[07:03] Navigation Mode: NAV
FS[07:04] NOTE: Taxi started
FS[07:04] NOTE: ----- TAKE OFF -----
FS[07:04] GS: 31 knots
FS[07:04] TAS: 33 knots
FS[07:04] IAS: 33 knots
FS[07:04] VS: 282 fpm
FS[07:04] FOB: 856 lbs
FS[07:04] Heading: 323°
FS[07:04] Pitch: 6°
FS[07:04] Bank: 0°
FS[07:04] Aircraft Weight: 3694.11 lbs
FS[07:04] Nearest Airport: HYG
FS[07:04] Distance: 0.36 miles
FS[07:04] Runway: ???
FS[07:04] Ground Surface: Water
FS[07:04] Ground Condition: Normal
FS[07:04] NOTE: Weather Report
FS[07:04] Wind Heading: 19°
FS[07:04] Wind Speed: 5 knots
FS[07:04] OAT: 21° C
FS[07:04] TAT: 21° C
FS[07:04] Precipitation: None
FS[07:04] Dew Point: 14° C
FS[07:04] Visibility: 7 miles
FS[07:04] METAR: No METAR available for HYG.
FS[07:04] NOTE: Climb started
FS[07:04] View Mode: Virtual Cockpit
FS[07:04] Autopilot: Engaged
FS[07:04] AGL: 232 ft
FS[07:04] AMSL: 232 ft
FS[07:04] Turbulence: Light
FS[07:07] Navigation Mode: GPS
FS[07:11] NOTE: TOC reached
FS[07:11] NOTE: Cruise started
FS[07:11] GS: 120 knots
FS[07:11] TAS: 123 knots
FS[07:11] IAS: 118 knots
FS[07:11] VS: 196 fpm
FS[07:11] FOB: 834 lbs
FS[07:11] Heading: 335°
FS[07:11] Pitch: 2°
FS[07:11] Bank: -1°
FS[07:11] Aircraft Weight: 3672.89 lbs
FS[07:26] Recovery: Flight Saved
FS[07:28] NOTE: TOD reached
FS[07:28] NOTE: Descent started
FS[07:28] GS: 122 knots
FS[07:28] TAS: 124 knots
FS[07:28] IAS: 119 knots
FS[07:28] VS: -402 fpm
FS[07:28] FOB: 784 lbs
FS[07:28] Heading: 322°
FS[07:28] Pitch: 3°
FS[07:28] Bank: -1°
FS[07:28] Aircraft Weight: 3622.49 lbs
FS[07:28] NOTE: On approach
FS[07:42] Recovery: Flight Saved
FS[07:47] Autopilot: Disengaged
FS[07:47] AGL: 859 ft
FS[07:47] AMSL: 859 ft
FS[07:50] NOTE: ----- LANDED -----
FS[07:50] Landing Rate: -65.36 fpm
FS[07:50] GS: 0 knots
FS[07:50] TAS: 0 knots
FS[07:50] IAS: 0 knots
FS[07:50] VS: -64 fpm
FS[07:50] FOB: 723 lbs
FS[07:50] Heading: 161°
FS[07:50] Pitch: 2°
FS[07:50] Bank: 0°
FS[07:50] Aircraft Weight: 3561.71 lbs
FS[07:50] Nearest Airport: KPB
FS[07:50] Distance: 0.20 miles
FS[07:50] Runway: ???
FS[07:50] Ground Surface: Water
FS[07:50] Ground Condition: Normal
FS[07:50] NOTE: Weather Report
FS[07:50] Wind Heading: 18°
FS[07:50] Wind Speed: 5 knots
FS[07:50] OAT: 21° C
FS[07:50] TAT: 21° C
FS[07:50] Precipitation: None
FS[07:50] Dew Point: 14° C
FS[07:50] Visibility: 7 miles
FS[07:50] METAR: KPBF 121553Z AUTO 19010KT 10SM CLR 28/17 A3009 RMK AO2 SLP186 T02780172KPBG 121553Z AUTO 11007KT 10SM CLR 13/M06 A3014 RMK AO2 SLP208 T01331056KPBH 121615Z AUTO 00000KT 10SM CLR 14/M02 A3016 RMK AO2 T01441018KPBI 121553Z 05012KT 10SM SCT029 SCT130 OVC200 27/19 A3013 RMK AO2 SLP201 T02670189KPBX 121615Z AUTO 22008G15KT 170V260 10SM SCT050 27/16 A3018 RMK AO2 LTG DSNT NE T02710156
FS[07:50] View Mode: Virtual Cockpit
FS[07:50] NOTE: Taxi started
FS[07:50] Gate: n/a
FS[07:50] NOTE: Flight Completed
FS[07:50] FS Aircraft: Bell 407 N020MM
FS[07:50] FS Model: B407
FS[07:50] FS Type: Bell
FS[07:50] FOB: 722 lbs
FS[07:50] Fuel Used: 135 lbs
FS[07:50] Flight Time: 00:47:07
FS[07:50] Flight Time (Dawn): 00:00:00
FS[07:50] Flight Time (Day): 00:47:07
FS[07:50] Flight Time (Dusk): 00:00:00
FS[07:50] Flight Time (Night): 00:00:00
FS[07:50] Total Landings: 1
FS[07:50] MaxSim Rate: 0x
FS[07:50] Cigar Box - 1.1.4.0
FS[07:50] ----- Flight Closed -----

Route Map